createdAt,value
2018-01-22T00:01:19.177Z,162.53
2018-01-22T00:03:47.117Z,161.00
2018-01-22T00:06:15.140Z,167.90
2018-01-22T00:08:43.213Z,182.20
2018-01-22T00:11:11.157Z,127.97
2018-01-22T00:13:39.087Z,132.73
2018-01-22T00:16:07.143Z,144.77
2018-01-22T00:18:35.043Z,151.93
2018-01-22T00:21:02.969Z,149.90
2018-01-22T00:23:31.023Z,159.03
2018-01-22T00:25:59.021Z,158.27
2018-01-22T00:28:26.953Z,153.60
2018-01-22T00:30:55.024Z,170.03
2018-01-22T00:33:22.967Z,152.00
2018-01-22T00:35:51.629Z,160.10
2018-01-22T00:38:19.701Z,152.87
2018-01-22T00:40:47.643Z,176.43
2018-01-22T00:43:15.579Z,169.20
2018-01-22T00:45:44.425Z,167.53
2018-01-22T00:48:12.363Z,166.30
2018-01-22T00:50:40.287Z,147.60
2018-01-22T00:53:08.447Z,180.73
2018-01-22T00:55:36.379Z,196.27
2018-01-22T00:58:04.329Z,165.80
2018-01-22T01:00:32.387Z,170.93
2018-01-22T01:03:01.082Z,157.00
2018-01-22T01:05:29.824Z,195.90
2018-01-22T01:07:57.890Z,168.07
2018-01-22T01:10:25.865Z,181.00
2018-01-22T01:12:53.814Z,203.30
2018-01-22T01:15:22.025Z,178.57
2018-01-22T01:17:49.943Z,192.63
2018-01-22T01:20:17.902Z,163.80
2018-01-22T01:22:46.709Z,157.80
2018-01-22T01:25:14.639Z,181.03
2018-01-22T01:27:42.587Z,182.87
2018-01-22T01:30:10.639Z,180.07
2018-01-22T01:32:38.621Z,169.60
2018-01-22T01:35:06.576Z,179.53
2018-01-22T01:37:34.656Z,190.67
2018-01-22T01:40:02.599Z,190.30
2018-01-22T01:42:30.590Z,179.10
2018-01-22T01:44:58.643Z,167.40
2018-01-22T01:47:26.581Z,156.00
2018-01-22T01:49:55.259Z,200.73
2018-01-22T01:52:23.325Z,162.77
2018-01-22T01:54:51.391Z,166.43
2018-01-22T01:57:19.453Z,185.33
2018-01-22T01:59:47.515Z,179.93
2018-01-22T02:02:15.449Z,156.13
2018-01-22T02:04:44.162Z,167.77
2018-01-22T02:07:12.293Z,181.37
2018-01-22T02:09:40.217Z,196.00
2018-01-22T02:12:08.159Z,179.00
2018-01-22T02:14:36.227Z,182.13
2018-01-22T02:17:04.950Z,169.63
2018-01-22T02:19:32.913Z,184.03
2018-01-22T02:22:01.037Z,181.20
2018-01-22T02:24:28.986Z,198.23
2018-01-22T02:26:56.947Z,214.23
2018-01-22T02:29:25.023Z,196.27
2018-01-22T02:31:52.970Z,186.57
2018-01-22T02:34:20.934Z,201.73
2018-01-22T02:36:49.058Z,218.40
2018-01-22T02:39:17.003Z,186.73
2018-01-22T02:41:44.923Z,189.13
2018-01-22T02:44:13.787Z,168.33
2018-01-22T02:46:41.861Z,184.47
2018-01-22T02:49:09.825Z,165.63
2018-01-22T02:51:37.901Z,178.40
2018-01-22T02:54:05.813Z,199.77
2018-01-22T02:56:33.953Z,179.33
2018-01-22T02:59:02.020Z,196.60
2018-01-22T03:01:30.059Z,188.30
2018-01-22T03:03:57.981Z,186.60
2018-01-22T03:06:26.926Z,144.50
2018-01-22T03:08:54.850Z,174.20
2018-01-22T03:11:23.507Z,162.27
2018-01-22T03:13:51.691Z,199.70
2018-01-22T03:16:19.770Z,181.50
2018-01-22T03:18:48.473Z,167.37
2018-01-22T03:21:17.264Z,176.73
2018-01-22T03:23:45.945Z,163.70
2018-01-22T03:26:14.623Z,180.33
2018-01-22T03:28:43.455Z,189.73
2018-01-22T03:31:11.413Z,183.83
2018-01-22T03:33:39.349Z,185.40
2018-01-22T03:36:07.527Z,177.67
2018-01-22T03:38:36.301Z,147.17
2018-01-22T03:41:04.253Z,180.90
2018-01-22T03:43:32.333Z,176.63
2018-01-22T03:46:00.393Z,161.30
2018-01-22T03:48:28.333Z,163.93
2018-01-22T03:50:56.393Z,172.87
2018-01-22T03:53:29.714Z,189.17
2018-01-22T03:55:58.805Z,200.50
2018-01-22T03:58:27.901Z,178.87
2018-01-22T04:00:55.835Z,158.80
2018-01-22T04:03:24.651Z,194.63
2018-01-22T04:05:52.579Z,182.90
2018-01-22T04:08:20.525Z,153.23
2018-01-22T04:10:48.578Z,145.80
2018-01-22T04:13:16.485Z,157.47
2018-01-22T04:15:44.437Z,164.27
2018-01-22T04:18:12.503Z,171.60
2018-01-22T04:20:40.433Z,161.73
2018-01-22T04:23:09.109Z,159.43
2018-01-22T04:25:37.951Z,147.10
2018-01-22T04:28:05.897Z,140.77
2018-01-22T04:30:33.824Z,157.63
2018-01-22T04:33:01.879Z,170.27
2018-01-22T04:35:29.927Z,157.43
2018-01-22T04:37:57.861Z,186.87
2018-01-22T04:40:26.655Z,166.60
2018-01-22T04:42:55.339Z,142.07
2018-01-22T04:45:24.009Z,174.83
2018-01-22T04:47:52.047Z,171.77
2018-01-22T04:50:19.994Z,171.10
2018-01-22T04:52:47.922Z,170.50
2018-01-22T04:55:16.728Z,172.97
2018-01-22T04:57:45.413Z,166.23
2018-01-22T05:00:14.235Z,205.47
2018-01-22T05:02:42.413Z,177.67
2018-01-22T05:05:10.446Z,165.90
2018-01-22T05:07:39.133Z,180.73
2018-01-22T05:10:07.219Z,185.40
2018-01-22T05:12:35.876Z,194.87
2018-01-22T05:15:03.865Z,169.17
2018-01-22T05:17:32.671Z,174.57
2018-01-22T05:20:00.577Z,170.03
2018-01-22T05:22:28.508Z,180.93
2018-01-22T05:24:56.559Z,183.17
2018-01-22T05:27:24.766Z,169.10
2018-01-22T05:29:52.743Z,169.70
2018-01-22T05:32:20.809Z,188.50
2018-01-22T05:34:48.721Z,180.77
2018-01-22T05:37:16.805Z,168.50
2018-01-22T05:39:44.859Z,163.20
2018-01-22T05:42:12.779Z,188.30
2018-01-22T05:44:41.461Z,201.47
2018-01-22T05:47:10.311Z,171.30
2018-01-22T05:49:38.225Z,152.13
2018-01-22T05:52:06.893Z,181.33
2018-01-22T05:54:35.709Z,175.10
2018-01-22T05:57:03.851Z,184.80
2018-01-22T05:59:31.903Z,201.67
2018-01-22T06:02:00.135Z,194.10
2018-01-22T06:04:28.049Z,169.03
2018-01-22T06:06:56.003Z,167.13
2018-01-22T06:09:24.057Z,165.43
2018-01-22T06:11:52.059Z,169.73
2018-01-22T06:14:20.087Z,188.93
2018-01-22T06:16:48.215Z,180.43
2018-01-22T06:19:16.146Z,174.67
2018-01-22T06:21:44.241Z,187.30
2018-01-22T06:24:12.295Z,177.60
2018-01-22T06:26:40.298Z,157.50
2018-01-22T06:29:08.385Z,149.70
2018-01-22T06:31:36.423Z,168.67
2018-01-22T06:34:04.361Z,184.97
2018-01-22T06:36:32.369Z,217.03
2018-01-22T06:39:00.401Z,167.30
2018-01-22T06:41:29.076Z,184.63
2018-01-22T06:43:57.743Z,156.53
2018-01-22T06:46:25.903Z,139.37
2018-01-22T06:48:53.823Z,145.57
2018-01-22T06:51:21.735Z,187.03
2018-01-22T06:53:49.838Z,173.13
2018-01-22T06:56:17.769Z,160.23
2018-01-22T06:58:45.798Z,153.97
2018-01-22T07:01:14.583Z,149.03
2018-01-22T07:03:43.394Z,126.70
2018-01-22T07:06:11.379Z,156.23
2018-01-22T07:08:39.456Z,162.63
2018-01-22T07:11:07.380Z,177.40
2018-01-22T07:13:36.036Z,175.23
2018-01-22T07:16:04.103Z,135.17
2018-01-22T07:18:32.021Z,172.10
2018-01-22T07:21:00.711Z,162.27
2018-01-22T07:23:28.747Z,176.13
2018-01-22T07:25:56.845Z,167.57
2018-01-22T07:28:30.179Z,132.07
2018-01-22T07:30:59.354Z,152.17
2018-01-22T07:33:32.201Z,148.20
2018-01-22T07:36:01.231Z,148.80
2018-01-22T07:38:29.895Z,143.33
2018-01-22T07:41:01.228Z,152.80
2018-01-22T07:43:29.819Z,146.47
2018-01-22T07:45:57.833Z,148.70
2018-01-22T07:48:25.769Z,129.70
2018-01-22T07:50:53.723Z,127.53
2018-01-22T07:53:21.658Z,143.43
2018-01-22T07:55:49.661Z,128.83
2018-01-22T07:58:17.628Z,137.93
2018-01-22T08:00:45.551Z,128.70
2018-01-22T08:03:13.486Z,133.67
2018-01-22T08:05:41.704Z,144.23
2018-01-22T08:08:09.607Z,112.83
2018-01-22T08:10:37.541Z,116.50
2018-01-22T08:13:05.587Z,107.37
2018-01-22T08:15:34.246Z,135.63
2018-01-22T08:18:02.181Z,140.40
2018-01-22T08:20:30.215Z,146.53
2018-01-22T08:22:58.898Z,123.50
2018-01-22T08:25:27.554Z,156.63
2018-01-22T08:27:55.611Z,153.80
2018-01-22T08:30:23.569Z,134.07
2018-01-22T08:32:51.506Z,137.97
2018-01-22T08:35:20.321Z,157.60
2018-01-22T08:37:48.247Z,129.57
2018-01-22T08:40:16.191Z,110.97
2018-01-22T08:42:44.254Z,133.83
2018-01-22T08:45:12.176Z,128.77
2018-01-22T08:47:40.839Z,136.83
2018-01-22T08:50:08.891Z,113.37
2018-01-22T08:52:36.853Z,121.23
2018-01-22T08:55:04.786Z,132.30
2018-01-22T08:57:32.842Z,130.73
2018-01-22T09:00:01.519Z,110.67
2018-01-22T09:02:29.427Z,98.70
2018-01-22T09:04:57.485Z,114.77
2018-01-22T09:07:25.591Z,103.47
2018-01-22T09:09:53.491Z,88.47
2018-01-22T09:12:21.529Z,134.30
2018-01-22T09:14:49.444Z,100.90
2018-01-22T09:17:17.490Z,98.87
2018-01-22T09:19:45.540Z,88.20
2018-01-22T09:22:13.466Z,96.00
2018-01-22T09:24:42.147Z,86.87
2018-01-22T09:27:11.013Z,97.83
2018-01-22T09:29:38.950Z,95.57
2018-01-22T09:32:06.893Z,97.60
2018-01-22T09:34:35.680Z,94.33
2018-01-22T09:37:04.407Z,71.17
2018-01-22T09:39:32.341Z,104.97
2018-01-22T09:42:01.141Z,95.97
2018-01-22T09:44:29.078Z,81.93
2018-01-22T09:46:57.129Z,93.03
2018-01-22T09:49:25.221Z,100.10
2018-01-22T09:51:53.193Z,97.40
2018-01-22T09:54:21.150Z,90.23
2018-01-22T09:56:49.357Z,96.97
2018-01-22T09:59:18.003Z,96.37
2018-01-22T10:01:45.929Z,114.90
2018-01-22T10:04:13.973Z,107.10
2018-01-22T10:06:41.933Z,119.07
2018-01-22T10:09:09.990Z,121.10
2018-01-22T10:11:38.102Z,121.20
2018-01-22T10:14:06.806Z,107.43
2018-01-22T10:16:34.795Z,141.50
2018-01-22T10:19:02.869Z,114.17
2018-01-22T10:21:30.801Z,96.67
2018-01-22T10:23:59.493Z,140.60
2018-01-22T10:26:28.353Z,116.03
2018-01-22T10:28:56.297Z,129.43
2018-01-22T10:31:24.216Z,118.17
2018-01-22T10:33:53.023Z,106.23
2018-01-22T10:36:21.787Z,111.07
2018-01-22T10:38:50.480Z,117.50
2018-01-22T10:41:19.281Z,77.53
2018-01-22T10:43:47.992Z,104.93
2018-01-22T10:46:15.911Z,91.87
2018-01-22T10:48:43.983Z,81.47
2018-01-22T10:51:11.887Z,91.07
2018-01-22T10:53:40.555Z,94.00
2018-01-22T10:56:09.365Z,87.80
2018-01-22T10:58:37.333Z,96.53
2018-01-22T11:01:06.033Z,73.87
2018-01-22T11:03:34.101Z,71.00
2018-01-22T11:06:02.151Z,79.27
2018-01-22T11:08:30.807Z,108.80
2018-01-22T11:10:59.036Z,95.07
2018-01-22T11:13:26.998Z,110.07
2018-01-22T11:16:01.479Z,97.07
2018-01-22T11:18:29.416Z,75.10
2018-01-22T11:20:57.338Z,89.73
2018-01-22T11:23:25.409Z,98.93
2018-01-22T11:25:53.332Z,89.07
2018-01-22T11:28:21.311Z,95.37
2018-01-22T11:30:49.358Z,81.43
2018-01-22T11:33:17.287Z,99.17
2018-01-22T11:35:45.203Z,108.60
2018-01-22T11:38:13.257Z,74.87
2018-01-22T11:40:41.933Z,79.00
2018-01-22T11:43:10.625Z,108.37
2018-01-22T11:45:39.421Z,88.00
2018-01-22T11:48:08.110Z,109.63
2018-01-22T11:50:36.055Z,114.47
2018-01-22T11:53:04.122Z,118.53
2018-01-22T11:55:32.229Z,85.63
2018-01-22T11:58:00.143Z,105.77
2018-01-22T12:00:28.218Z,115.70
2018-01-22T12:02:56.155Z,117.80
2018-01-22T12:05:24.100Z,118.93
2018-01-22T12:07:52.901Z,112.50
2018-01-22T12:10:20.831Z,119.13
2018-01-22T12:12:48.989Z,134.27
2018-01-22T12:15:17.167Z,115.53
2018-01-22T12:17:45.114Z,116.50
2018-01-22T12:20:13.027Z,104.43
2018-01-22T12:22:41.139Z,91.53
2018-01-22T12:25:09.217Z,93.03
2018-01-22T12:27:37.259Z,102.77
2018-01-22T12:30:06.088Z,115.27
2018-01-22T12:32:34.010Z,88.33
2018-01-22T12:35:01.961Z,102.20
2018-01-22T12:37:30.141Z,66.27
2018-01-22T12:39:58.095Z,94.43
2018-01-22T12:42:26.017Z,83.80
2018-01-22T12:44:54.819Z,93.60
2018-01-22T12:47:22.761Z,96.13
2018-01-22T12:49:51.458Z,94.80
2018-01-22T12:52:20.253Z,95.90
2018-01-22T12:54:48.932Z,81.17
2018-01-22T12:57:17.721Z,77.57
2018-01-22T12:59:46.497Z,90.53
2018-01-22T13:02:14.431Z,87.43
2018-01-22T13:04:42.365Z,85.97
2018-01-22T13:07:10.488Z,83.90
2018-01-22T13:09:38.427Z,91.13
2018-01-22T13:12:06.362Z,82.90
2018-01-22T13:14:35.311Z,85.57
2018-01-22T13:17:03.289Z,76.93
2018-01-22T13:19:31.353Z,73.80
2018-01-22T13:21:59.400Z,84.30
2018-01-22T13:24:27.315Z,82.40
2018-01-22T13:26:55.326Z,88.90
2018-01-22T13:29:23.405Z,92.83
2018-01-22T13:31:51.349Z,91.20
2018-01-22T13:34:20.054Z,83.10
2018-01-22T13:36:48.909Z,94.07
2018-01-22T13:39:16.841Z,91.70
2018-01-22T13:41:44.790Z,95.37
2018-01-22T13:44:12.853Z,70.47
2018-01-22T13:46:41.601Z,58.77
2018-01-22T13:49:09.668Z,75.80
2018-01-22T13:51:37.736Z,74.23
2018-01-22T13:54:05.661Z,82.70
2018-01-22T13:56:33.663Z,74.37
2018-01-22T13:59:01.711Z,78.57
2018-01-22T14:01:29.657Z,81.00
2018-01-22T14:03:58.306Z,71.23
2018-01-22T14:06:26.403Z,79.13
2018-01-22T14:08:54.378Z,44.73
2018-01-22T14:11:22.300Z,71.67
2018-01-22T14:13:50.391Z,60.97
2018-01-22T14:16:18.457Z,58.37
2018-01-22T14:18:46.371Z,63.20
2018-01-22T14:21:15.263Z,54.60
2018-01-22T14:23:43.941Z,67.57
2018-01-22T14:26:12.103Z,53.73
2018-01-22T14:28:40.299Z,69.03
2018-01-22T14:31:08.969Z,50.57
2018-01-22T14:33:36.899Z,73.20
2018-01-22T14:36:04.889Z,69.27
2018-01-22T14:38:32.822Z,97.07
2018-01-22T14:41:00.790Z,73.87
2018-01-22T14:43:28.853Z,67.20
2018-01-22T14:45:57.509Z,66.40
2018-01-22T14:48:25.445Z,61.53
2018-01-22T14:50:53.541Z,62.40
2018-01-22T14:53:21.491Z,54.70
2018-01-22T14:55:49.414Z,58.77
2018-01-22T14:58:18.210Z,54.30
2018-01-22T15:00:46.925Z,52.00
2018-01-22T15:03:14.869Z,49.23
2018-01-22T15:05:43.659Z,53.70
2018-01-22T15:08:12.319Z,76.37
2018-01-22T15:10:40.269Z,66.73
2018-01-22T15:13:08.350Z,64.13
2018-01-22T15:15:36.293Z,65.13
2018-01-22T15:18:04.343Z,68.33
2018-01-22T15:20:32.773Z,66.63
2018-01-22T15:23:00.695Z,55.47
2018-01-22T15:25:28.692Z,55.07
2018-01-22T15:27:56.958Z,62.77
2018-01-22T15:30:24.927Z,77.80
2018-01-22T15:32:52.887Z,60.93
2018-01-22T15:35:20.951Z,61.93
2018-01-22T15:37:48.884Z,66.83
2018-01-22T15:40:16.791Z,70.03
2018-01-22T15:42:44.910Z,58.40
2018-01-22T15:45:12.862Z,71.27
2018-01-22T15:47:40.827Z,79.17
2018-01-22T15:50:09.036Z,78.90
2018-01-22T15:52:38.232Z,61.00
2018-01-22T15:55:06.171Z,49.33
2018-01-22T15:57:34.300Z,82.20
2018-01-22T16:00:03.203Z,66.93
2018-01-22T16:02:31.928Z,82.33
2018-01-22T16:05:00.056Z,50.90
2018-01-22T16:07:28.807Z,67.23
2018-01-22T16:09:56.797Z,65.63
2018-01-22T16:12:25.823Z,62.67
2018-01-22T16:14:53.790Z,68.53
2018-01-22T16:17:22.564Z,85.70
2018-01-22T16:19:51.768Z,63.50
2018-01-22T16:22:20.810Z,69.63
2018-01-22T16:24:48.950Z,74.03
2018-01-22T16:27:17.889Z,73.77
2018-01-22T16:29:45.936Z,50.83
2018-01-22T16:32:15.768Z,71.80
2018-01-22T16:34:44.012Z,55.47
2018-01-22T16:37:14.400Z,60.87
2018-01-22T16:39:43.193Z,82.30
2018-01-22T16:42:11.305Z,53.53
2018-01-22T16:44:39.452Z,76.47
2018-01-22T16:47:14.037Z,73.70
2018-01-22T16:49:42.083Z,80.50
2018-01-22T16:52:10.123Z,65.93
2018-01-22T16:54:39.969Z,77.13
2018-01-22T16:57:08.929Z,69.07
2018-01-22T16:59:37.794Z,84.73
2018-01-22T17:02:05.990Z,64.70
2018-01-22T17:04:33.994Z,92.33
2018-01-22T17:07:02.081Z,65.77
2018-01-22T17:09:30.227Z,65.27
2018-01-22T17:11:58.937Z,79.43
2018-01-22T17:14:26.899Z,62.17
2018-01-22T17:16:55.060Z,71.93
2018-01-22T17:19:23.756Z,65.90
2018-01-22T17:21:52.597Z,103.47
2018-01-22T17:24:20.802Z,74.90
2018-01-22T17:26:48.843Z,57.83
2018-01-22T17:29:16.760Z,72.97
2018-01-22T17:31:45.539Z,64.93
2018-01-22T17:34:14.221Z,83.93
2018-01-22T17:36:42.292Z,89.93
2018-01-22T17:39:10.379Z,101.43
2018-01-22T17:41:39.060Z,85.43
2018-01-22T17:44:08.483Z,89.43
2018-01-22T17:46:36.608Z,73.90
2018-01-22T17:49:04.647Z,81.37
2018-01-22T17:51:32.570Z,93.30
2018-01-22T17:54:00.638Z,81.53
2018-01-22T17:56:28.639Z,76.80
2018-01-22T17:58:57.271Z,79.37
2018-01-22T18:01:25.358Z,71.63
2018-01-22T18:03:53.258Z,67.37
2018-01-22T18:06:22.006Z,77.63
2018-01-22T18:08:50.043Z,71.00
2018-01-22T18:11:17.968Z,73.63
2018-01-22T18:13:47.219Z,60.83
2018-01-22T18:16:15.326Z,71.40
2018-01-22T18:18:43.272Z,74.33
2018-01-22T18:21:11.207Z,61.17
2018-01-22T18:23:41.707Z,76.73
2018-01-22T18:26:11.017Z,59.47
2018-01-22T18:28:40.289Z,70.93
2018-01-22T18:31:08.373Z,72.90
2018-01-22T18:33:36.300Z,78.77
2018-01-22T18:36:04.317Z,53.63
2018-01-22T18:38:32.434Z,63.27
2018-01-22T18:41:00.359Z,57.80
2018-01-22T18:43:28.297Z,57.37
2018-01-22T18:45:56.523Z,56.27
2018-01-22T18:48:24.474Z,65.30
2018-01-22T18:50:52.387Z,77.60
2018-01-22T18:53:21.183Z,55.87
2018-01-22T18:55:49.099Z,56.53
2018-01-22T18:58:17.040Z,72.83
2018-01-22T19:00:45.141Z,61.80
2018-01-22T19:03:13.093Z,57.20
2018-01-22T19:05:41.031Z,59.57
2018-01-22T19:08:09.089Z,58.10
2018-01-22T19:10:37.801Z,57.60
2018-01-22T19:13:05.741Z,70.60
2018-01-22T19:15:34.526Z,64.67
2018-01-22T19:18:03.210Z,67.27
2018-01-22T19:20:31.161Z,60.97
2018-01-22T19:22:59.243Z,68.53
2018-01-22T19:25:27.311Z,63.20
2018-01-22T19:27:55.277Z,57.40
2018-01-22T19:30:23.383Z,39.80
2018-01-22T19:32:52.053Z,79.87
2018-01-22T19:35:20.037Z,70.50
2018-01-22T19:37:48.955Z,57.30
2018-01-22T19:40:16.895Z,74.07
2018-01-22T19:42:45.554Z,42.37
2018-01-22T19:45:13.616Z,66.57
2018-01-22T19:47:41.541Z,73.07
2018-01-22T19:50:10.200Z,53.40
2018-01-22T19:52:38.253Z,73.43
2018-01-22T19:55:06.195Z,58.23
2018-01-22T19:57:34.200Z,70.80
2018-01-22T20:00:02.285Z,68.57
2018-01-22T20:02:30.240Z,52.67
2018-01-22T20:04:58.131Z,52.67
2018-01-22T20:07:26.180Z,72.70
2018-01-22T20:09:54.145Z,68.40
2018-01-22T20:12:22.099Z,89.77
2018-01-22T20:14:50.163Z,84.10
2018-01-22T20:17:18.158Z,66.60
2018-01-22T20:19:46.096Z,72.07
2018-01-22T20:22:14.145Z,71.73
2018-01-22T20:24:42.857Z,78.77
2018-01-22T20:27:10.981Z,67.43
2018-01-22T20:29:39.051Z,69.43
2018-01-22T20:32:06.979Z,63.33
2018-01-22T20:34:34.895Z,60.83
2018-01-22T20:37:03.174Z,66.33
2018-01-22T20:39:31.252Z,74.23
2018-01-22T20:42:00.427Z,74.00
2018-01-22T20:44:28.459Z,65.50
2018-01-22T20:46:56.481Z,66.40
2018-01-22T20:49:24.411Z,71.90
2018-01-22T20:51:52.477Z,59.47
2018-01-22T20:54:20.398Z,70.73
2018-01-22T20:56:48.428Z,76.47
2018-01-22T20:59:16.487Z,55.83
2018-01-22T21:01:44.419Z,89.17
2018-01-22T21:04:12.361Z,62.07
2018-01-22T21:06:40.489Z,66.57
2018-01-22T21:09:08.403Z,97.70
2018-01-22T21:11:36.350Z,55.30
2018-01-22T21:14:04.397Z,50.30
2018-01-22T21:16:33.091Z,81.13
2018-01-22T21:19:01.022Z,81.13
2018-01-22T21:21:29.069Z,74.87
2018-01-22T21:23:57.025Z,65.43
2018-01-22T21:26:24.985Z,72.73
2018-01-22T21:28:53.170Z,56.53
2018-01-22T21:31:21.089Z,75.03
2018-01-22T21:33:49.023Z,58.73
2018-01-22T21:36:17.113Z,63.40
2018-01-22T21:38:45.055Z,78.73
2018-01-22T21:41:13.026Z,77.93
2018-01-22T21:43:41.071Z,57.57
2018-01-22T21:46:08.995Z,69.03
2018-01-22T21:48:36.941Z,72.77
2018-01-22T21:51:05.015Z,62.73
2018-01-22T21:53:32.962Z,55.70
2018-01-22T21:56:00.888Z,58.17
2018-01-22T21:58:28.964Z,74.47
2018-01-22T22:00:56.912Z,58.50
2018-01-22T22:03:24.873Z,53.03
2018-01-22T22:05:52.949Z,59.63
2018-01-22T22:08:20.870Z,75.53
2018-01-22T22:10:49.541Z,67.87
2018-01-22T22:13:18.345Z,63.70
2018-01-22T22:15:47.007Z,68.83
2018-01-22T22:18:14.906Z,62.73
2018-01-22T22:20:43.713Z,54.67
2018-01-22T22:23:11.657Z,70.97
2018-01-22T22:25:40.331Z,54.57
2018-01-22T22:28:09.123Z,55.53
2018-01-22T22:30:37.928Z,71.43
2018-01-22T22:33:06.595Z,61.90
2018-01-22T22:35:34.667Z,64.17
2018-01-22T22:38:02.589Z,72.07
2018-01-22T22:40:30.544Z,56.57
2018-01-22T22:42:58.594Z,67.33
2018-01-22T22:45:27.257Z,57.70
2018-01-22T22:47:55.213Z,55.47
2018-01-22T22:50:23.394Z,58.77
2018-01-22T22:52:51.339Z,57.90
2018-01-22T22:55:19.282Z,59.87
2018-01-22T22:57:47.396Z,59.20
2018-01-22T23:00:15.380Z,55.40
2018-01-22T23:02:43.284Z,56.90
2018-01-22T23:05:12.059Z,62.10
2018-01-22T23:07:40.747Z,53.00
2018-01-22T23:10:09.397Z,56.60
2018-01-22T23:12:37.467Z,56.57
2018-01-22T23:15:05.401Z,60.97
2018-01-22T23:17:33.327Z,56.70
2018-01-22T23:20:01.399Z,60.30
2018-01-22T23:22:29.311Z,63.80
2018-01-22T23:24:57.233Z,45.70
2018-01-22T23:27:25.309Z,71.83
2018-01-22T23:29:53.261Z,62.30
2018-01-22T23:32:21.303Z,64.57
2018-01-22T23:34:49.497Z,65.63
2018-01-22T23:37:17.473Z,64.10
2018-01-22T23:39:45.386Z,65.73
2018-01-22T23:42:14.255Z,55.17
2018-01-22T23:44:42.175Z,59.83
2018-01-22T23:47:10.173Z,58.70
2018-01-22T23:49:38.219Z,57.20
2018-01-22T23:52:06.421Z,57.00
2018-01-22T23:54:34.339Z,62.00
2018-01-22T23:57:03.229Z,60.90
2018-01-22T23:59:31.977Z,49.87
